createdAt,value
2022-08-03T00:00:40.304Z,17.01
2022-08-03T00:03:09.016Z,17.00
2022-08-03T00:05:37.971Z,16.91
2022-08-03T00:08:06.639Z,16.81
2022-08-03T00:10:35.505Z,16.73
2022-08-03T00:13:05.635Z,16.67
2022-08-03T00:15:34.511Z,16.63
2022-08-03T00:18:03.043Z,16.69
2022-08-03T00:20:31.805Z,16.71
2022-08-03T00:23:00.635Z,16.73
2022-08-03T00:25:29.382Z,16.75
2022-08-03T00:27:57.994Z,16.78
2022-08-03T00:30:30.763Z,16.75
2022-08-03T00:33:00.637Z,16.73
2022-08-03T00:35:37.157Z,16.73
2022-08-03T00:38:18.068Z,16.69
2022-08-03T00:40:46.919Z,16.67
2022-08-03T00:43:15.546Z,16.62
2022-08-03T00:45:45.807Z,16.61
2022-08-03T00:48:23.311Z,16.65
2022-08-03T00:51:02.358Z,16.61
2022-08-03T00:53:31.361Z,16.57
2022-08-03T00:56:00.425Z,16.53
2022-08-03T00:58:29.119Z,16.58
2022-08-03T01:00:59.352Z,16.52
2022-08-03T01:03:28.031Z,16.59
2022-08-03T01:06:01.689Z,16.60
2022-08-03T01:08:49.554Z,16.52
2022-08-03T01:11:25.207Z,16.43
2022-08-03T01:14:18.874Z,16.44
2022-08-03T01:16:56.851Z,16.43
2022-08-03T01:19:42.757Z,16.45
2022-08-03T01:22:27.002Z,16.41
2022-08-03T01:25:04.217Z,16.43
2022-08-03T01:27:48.194Z,16.37
2022-08-03T01:30:18.548Z,16.27
2022-08-03T01:33:01.131Z,16.19
2022-08-03T01:35:36.729Z,16.12
2022-08-03T01:38:12.652Z,16.17
2022-08-03T01:40:44.613Z,16.27
2022-08-03T01:43:55.200Z,16.30
2022-08-03T01:46:09.808Z,16.22
2022-08-03T01:48:40.900Z,16.22
2022-08-03T01:51:11.038Z,16.16
2022-08-03T01:53:43.748Z,16.13
2022-08-03T01:56:14.480Z,16.12
2022-08-03T01:58:45.433Z,16.11
2022-08-03T02:01:17.785Z,16.09
2022-08-03T02:04:00.510Z,16.12
2022-08-03T02:07:01.831Z,16.09
2022-08-03T02:09:24.663Z,16.05
2022-08-03T02:11:54.747Z,15.99
2022-08-03T02:14:24.538Z,15.90
2022-08-03T02:16:56.486Z,15.89
2022-08-03T02:19:30.320Z,15.89
2022-08-03T02:22:02.044Z,15.88
2022-08-03T02:24:32.873Z,15.92
2022-08-03T02:27:04.943Z,15.95
2022-08-03T02:29:38.854Z,15.89
2022-08-03T02:32:15.867Z,15.81
2022-08-03T02:34:48.637Z,15.76
2022-08-03T02:37:19.997Z,15.71
2022-08-03T02:39:52.063Z,15.63
2022-08-03T02:42:24.287Z,15.65
2022-08-03T02:44:56.429Z,15.68
2022-08-03T02:47:54.515Z,15.73
2022-08-03T02:50:20.992Z,15.72
2022-08-03T02:52:50.787Z,15.73
2022-08-03T02:55:21.202Z,15.74
2022-08-03T02:57:51.247Z,15.76
2022-08-03T03:00:27.573Z,15.86
2022-08-03T03:03:00.937Z,15.91
2022-08-03T03:05:55.278Z,15.95
2022-08-03T03:08:26.269Z,15.97
2022-08-03T03:10:59.320Z,15.98
2022-08-03T03:13:29.652Z,15.98
2022-08-03T03:16:01.024Z,15.95
2022-08-03T03:18:32.609Z,15.91
2022-08-03T03:21:02.593Z,15.87
2022-08-03T03:23:32.584Z,15.82
2022-08-03T03:26:03.447Z,15.82
2022-08-03T03:28:33.498Z,15.85
2022-08-03T03:31:02.424Z,15.84
2022-08-03T03:33:32.502Z,15.87
2022-08-03T03:36:01.661Z,15.84
2022-08-03T03:38:30.464Z,15.80
2022-08-03T03:40:59.549Z,15.79
2022-08-03T03:43:29.389Z,15.80
2022-08-03T03:45:59.737Z,15.79
2022-08-03T03:48:29.055Z,15.79
2022-08-03T03:51:02.597Z,15.76
2022-08-03T03:53:31.314Z,15.74
2022-08-03T03:56:02.548Z,15.75
2022-08-03T03:58:33.139Z,15.73
2022-08-03T04:01:02.495Z,15.76
2022-08-03T04:03:31.259Z,15.75
2022-08-03T04:06:17.981Z,15.74
2022-08-03T04:09:14.034Z,15.76
2022-08-03T04:11:48.612Z,15.72
2022-08-03T04:14:20.808Z,15.70
2022-08-03T04:16:53.343Z,15.67
2022-08-03T04:19:28.406Z,15.72
2022-08-03T04:22:01.310Z,15.73
2022-08-03T04:24:35.013Z,15.80
2022-08-03T04:27:07.682Z,15.79
2022-08-03T04:29:44.762Z,15.81
2022-08-03T04:32:18.587Z,15.77
2022-08-03T04:34:48.038Z,15.79
2022-08-03T04:37:25.594Z,15.79
2022-08-03T04:39:59.693Z,15.84
2022-08-03T04:42:28.899Z,15.91
2022-08-03T04:45:01.374Z,15.98
2022-08-03T04:47:33.751Z,16.01
2022-08-03T04:50:03.178Z,16.04
2022-08-03T04:52:32.520Z,16.12
2022-08-03T04:55:02.997Z,16.33
2022-08-03T04:57:31.593Z,16.64
2022-08-03T05:00:02.938Z,16.84
2022-08-03T05:02:33.706Z,16.91
2022-08-03T05:05:02.292Z,16.99
2022-08-03T05:07:35.473Z,17.15
2022-08-03T05:10:14.757Z,17.19
2022-08-03T05:12:46.224Z,17.30
2022-08-03T05:15:15.192Z,17.41
2022-08-03T05:17:43.886Z,17.53
2022-08-03T05:20:13.434Z,17.60
2022-08-03T05:22:45.190Z,17.67
2022-08-03T05:25:17.766Z,17.74
2022-08-03T05:27:49.284Z,17.84
2022-08-03T05:30:31.392Z,17.94
2022-08-03T05:33:03.853Z,18.08
2022-08-03T05:36:02.769Z,18.31
2022-08-03T05:38:34.358Z,18.47
2022-08-03T05:41:22.724Z,18.65
2022-08-03T05:43:53.694Z,18.89
2022-08-03T05:46:23.051Z,19.10
2022-08-03T05:48:51.789Z,19.39
2022-08-03T05:51:20.425Z,19.54
2022-08-03T05:53:49.065Z,19.86
2022-08-03T05:56:23.488Z,20.75
2022-08-03T05:58:52.419Z,21.74
2022-08-03T06:01:22.820Z,22.42
2022-08-03T06:03:52.100Z,23.27
2022-08-03T06:06:21.189Z,23.95
2022-08-03T06:08:49.799Z,24.54
2022-08-03T06:11:19.846Z,25.09
2022-08-03T06:13:48.492Z,25.91
2022-08-03T06:16:17.110Z,26.24
2022-08-03T06:18:46.028Z,26.66
2022-08-03T06:21:16.391Z,27.10
2022-08-03T06:23:54.397Z,27.30
2022-08-03T06:26:29.059Z,27.77
2022-08-03T06:28:58.206Z,28.14
2022-08-03T06:31:33.018Z,28.50
2022-08-03T06:34:33.671Z,28.15
2022-08-03T06:36:58.616Z,28.40
2022-08-03T06:39:31.221Z,29.03
2022-08-03T06:42:01.337Z,29.03
2022-08-03T06:44:30.023Z,28.89
2022-08-03T06:46:58.663Z,28.87
2022-08-03T06:49:28.138Z,28.89
2022-08-03T06:52:04.955Z,29.19
2022-08-03T06:54:39.985Z,28.67
2022-08-03T06:57:11.680Z,28.12
2022-08-03T07:00:06.415Z,28.35
2022-08-03T07:02:29.360Z,28.45
2022-08-03T07:04:58.708Z,28.98
2022-08-03T07:07:27.326Z,29.31
2022-08-03T07:09:57.775Z,29.36
2022-08-03T07:12:29.688Z,30.06
2022-08-03T07:15:01.704Z,30.10
2022-08-03T07:17:33.362Z,30.57
2022-08-03T07:20:03.729Z,30.89
2022-08-03T07:22:32.323Z,30.97
2022-08-03T07:25:01.311Z,31.37
2022-08-03T07:27:32.304Z,31.78
2022-08-03T07:30:01.116Z,32.33
2022-08-03T07:32:31.480Z,33.21
2022-08-03T07:35:01.464Z,32.55
2022-08-03T07:37:31.444Z,32.82
2022-08-03T07:40:00.534Z,32.86
2022-08-03T07:42:31.590Z,33.12
2022-08-03T07:45:00.767Z,33.23
2022-08-03T07:47:34.977Z,33.03
2022-08-03T07:50:08.769Z,33.59
2022-08-03T07:52:50.593Z,33.79
2022-08-03T07:55:21.490Z,34.14
2022-08-03T07:58:01.191Z,35.01
2022-08-03T08:00:30.138Z,34.70
2022-08-03T08:02:58.915Z,34.90
2022-08-03T08:05:28.384Z,35.46
2022-08-03T08:07:56.945Z,35.42
2022-08-03T08:10:25.722Z,35.20
2022-08-03T08:12:56.538Z,35.57
2022-08-03T08:15:25.882Z,35.51
2022-08-03T08:17:56.130Z,36.33
2022-08-03T08:20:30.855Z,36.09
2022-08-03T08:23:02.925Z,36.04
2022-08-03T08:25:33.497Z,35.94
2022-08-03T08:28:31.803Z,35.92
2022-08-03T08:30:53.050Z,36.52
2022-08-03T08:33:23.317Z,36.39
2022-08-03T08:35:54.062Z,36.90
2022-08-03T08:38:23.286Z,36.91
2022-08-03T08:40:52.144Z,36.62
2022-08-03T08:43:22.090Z,37.24
2022-08-03T08:45:51.736Z,37.68
2022-08-03T08:48:25.599Z,37.60
2022-08-03T08:50:55.548Z,36.99
2022-08-03T08:53:27.815Z,37.42
2022-08-03T08:56:00.865Z,37.38
2022-08-03T08:58:38.680Z,37.29
2022-08-03T09:01:07.878Z,38.28
2022-08-03T09:03:36.899Z,37.85
2022-08-03T09:06:06.783Z,38.40
2022-08-03T09:08:35.687Z,38.49
2022-08-03T09:11:04.400Z,38.81
2022-08-03T09:13:34.571Z,38.25
2022-08-03T09:16:14.612Z,38.50
2022-08-03T09:18:44.294Z,37.91
2022-08-03T09:21:34.196Z,37.71
2022-08-03T09:24:06.311Z,37.89
2022-08-03T09:26:37.114Z,38.55
2022-08-03T09:29:14.798Z,38.87
2022-08-03T09:31:46.418Z,38.77
2022-08-03T09:34:18.282Z,39.15
2022-08-03T09:36:48.929Z,39.49
2022-08-03T09:39:19.431Z,38.94
2022-08-03T09:41:50.100Z,38.99
2022-08-03T09:44:34.708Z,38.40
2022-08-03T09:47:03.700Z,39.14
2022-08-03T09:49:32.616Z,38.61
2022-08-03T09:52:38.239Z,39.24
2022-08-03T09:55:02.408Z,39.73
2022-08-03T09:57:31.882Z,39.39
2022-08-03T10:00:12.075Z,40.15
2022-08-03T10:02:45.726Z,40.21
2022-08-03T10:05:19.805Z,39.77
2022-08-03T10:07:51.042Z,39.50
2022-08-03T10:10:30.467Z,39.03
2022-08-03T10:13:01.336Z,39.79
2022-08-03T10:16:23.842Z,39.71
2022-08-03T10:18:20.199Z,39.90
2022-08-03T10:20:53.459Z,40.29
2022-08-03T10:23:24.963Z,40.60
2022-08-03T10:25:58.368Z,41.06
2022-08-03T10:28:33.415Z,40.89
2022-08-03T10:31:07.650Z,41.08
2022-08-03T10:33:50.232Z,41.26
2022-08-03T10:36:25.236Z,41.27
2022-08-03T10:38:55.171Z,40.77
2022-08-03T10:41:29.951Z,40.05
2022-08-03T10:44:03.915Z,40.89
2022-08-03T10:46:35.558Z,40.14
2022-08-03T10:49:05.273Z,40.31
2022-08-03T10:51:34.609Z,40.79
2022-08-03T10:54:03.532Z,40.69
2022-08-03T10:56:58.621Z,41.21
2022-08-03T11:00:07.413Z,40.90
2022-08-03T11:03:10.053Z,40.37
2022-08-03T11:05:41.962Z,40.66
2022-08-03T11:08:26.818Z,41.00
2022-08-03T11:10:57.513Z,41.06
2022-08-03T11:13:28.348Z,41.00
2022-08-03T11:16:01.606Z,41.20
2022-08-03T11:18:33.223Z,41.35
2022-08-03T11:21:02.080Z,41.45
2022-08-03T11:24:04.233Z,41.67
2022-08-03T11:26:35.134Z,42.22
2022-08-03T11:29:28.939Z,41.86
2022-08-03T11:31:57.704Z,42.39
2022-08-03T11:34:27.859Z,42.41
2022-08-03T11:37:23.693Z,41.51
2022-08-03T11:39:56.955Z,41.91
2022-08-03T11:42:40.465Z,41.92
2022-08-03T11:45:11.005Z,42.12
2022-08-03T11:47:50.498Z,41.54
2022-08-03T11:50:22.527Z,41.17
2022-08-03T11:52:51.912Z,40.35
2022-08-03T11:55:22.717Z,41.31
2022-08-03T11:59:17.904Z,41.50
2022-08-03T12:00:42.050Z,41.62
2022-08-03T12:03:13.801Z,42.04
2022-08-03T12:05:51.151Z,42.54
2022-08-03T12:08:32.617Z,42.24
2022-08-03T12:11:03.178Z,41.87
2022-08-03T12:14:45.351Z,42.38
2022-08-03T12:16:29.648Z,41.75
2022-08-03T12:19:03.692Z,41.68
2022-08-03T12:21:33.853Z,41.96
2022-08-03T12:24:04.327Z,42.69
2022-08-03T12:26:58.323Z,41.63
2022-08-03T12:29:28.946Z,42.36
2022-08-03T12:31:58.135Z,41.55
2022-08-03T12:34:47.334Z,40.83
2022-08-03T12:37:22.677Z,42.47
2022-08-03T12:40:02.347Z,41.62
2022-08-03T12:42:35.655Z,40.05
2022-08-03T12:45:25.594Z,40.39
2022-08-03T12:47:56.508Z,40.84
2022-08-03T12:50:27.084Z,40.31
2022-08-03T12:52:56.426Z,40.50
2022-08-03T12:55:27.607Z,40.71
2022-08-03T12:57:56.262Z,40.44
2022-08-03T13:00:29.359Z,40.40
2022-08-03T13:05:57.382Z,41.25
2022-08-03T13:08:26.871Z,40.99
2022-08-03T13:10:55.686Z,40.30
2022-08-03T13:13:40.301Z,40.56
2022-08-03T13:16:10.317Z,41.35
2022-08-03T13:18:38.899Z,40.26
2022-08-03T13:21:09.984Z,40.60
2022-08-03T13:23:38.569Z,40.76
2022-08-03T13:26:07.271Z,40.80
2022-08-03T13:28:36.010Z,41.13
2022-08-03T13:31:11.055Z,41.00
2022-08-03T13:33:44.902Z,41.15
2022-08-03T13:36:18.789Z,40.98
2022-08-03T13:38:57.443Z,40.67
2022-08-03T13:41:32.333Z,40.10
2022-08-03T13:44:26.634Z,39.73
2022-08-03T13:46:52.241Z,38.81
2022-08-03T13:49:23.271Z,38.23
2022-08-03T13:52:02.235Z,37.69
2022-08-03T13:54:31.325Z,37.26
2022-08-03T13:58:04.731Z,36.62
2022-08-03T13:59:54.892Z,36.56
2022-08-03T14:02:25.115Z,36.33
2022-08-03T14:04:54.668Z,35.85
2022-08-03T14:07:23.197Z,35.97
2022-08-03T14:09:51.752Z,35.72
2022-08-03T14:12:20.402Z,35.22
2022-08-03T14:14:49.000Z,35.12
2022-08-03T14:17:18.475Z,34.78
2022-08-03T14:19:53.353Z,34.66
2022-08-03T14:22:22.783Z,34.49
2022-08-03T14:24:51.354Z,34.66
2022-08-03T14:27:20.326Z,34.55
2022-08-03T14:29:48.999Z,34.55
2022-08-03T14:32:17.672Z,34.51
2022-08-03T14:34:46.290Z,34.22
2022-08-03T14:37:16.431Z,34.12
2022-08-03T14:40:02.394Z,34.01
2022-08-03T14:42:31.889Z,34.10
2022-08-03T14:45:04.611Z,34.12
2022-08-03T14:50:24.350Z,33.96
2022-08-03T14:50:36.559Z,33.85
2022-08-03T14:53:11.096Z,33.52
2022-08-03T14:55:50.813Z,33.45
2022-08-03T14:58:21.871Z,33.52
2022-08-03T15:00:52.445Z,33.41
2022-08-03T15:03:24.947Z,33.34
2022-08-03T15:05:54.930Z,33.14
2022-08-03T15:08:26.559Z,32.89
2022-08-03T15:10:55.702Z,32.81
2022-08-03T15:13:25.299Z,32.82
2022-08-03T15:15:53.922Z,32.80
2022-08-03T15:18:22.683Z,32.88
2022-08-03T15:20:51.314Z,32.89
2022-08-03T15:23:20.097Z,32.90
2022-08-03T15:26:03.703Z,32.66
2022-08-03T15:28:41.109Z,32.54
2022-08-03T15:31:09.725Z,32.55
2022-08-03T15:33:38.531Z,32.57
2022-08-03T15:36:07.891Z,32.51
2022-08-03T15:38:36.501Z,32.50
2022-08-03T15:41:13.485Z,32.35
2022-08-03T15:43:42.668Z,32.29
2022-08-03T15:46:29.271Z,32.28
2022-08-03T15:48:58.409Z,32.12
2022-08-03T15:51:27.051Z,32.14
2022-08-03T15:53:56.189Z,32.10
2022-08-03T15:56:27.135Z,32.09
2022-08-03T15:59:09.687Z,32.02
2022-08-03T16:01:42.395Z,32.04
2022-08-03T16:04:11.092Z,31.91
2022-08-03T16:06:39.714Z,31.87
2022-08-03T16:09:23.918Z,31.70
2022-08-03T16:11:59.108Z,31.71
2022-08-03T16:14:34.434Z,31.64
2022-08-03T16:17:06.789Z,31.61
2022-08-03T16:19:35.507Z,31.63
2022-08-03T16:22:04.536Z,31.52
2022-08-03T16:24:33.400Z,31.45
2022-08-03T16:27:03.388Z,31.47
2022-08-03T16:29:32.048Z,31.49
2022-08-03T16:32:09.352Z,31.46
2022-08-03T16:34:39.278Z,31.43
2022-08-03T16:37:36.482Z,31.38
2022-08-03T16:39:58.422Z,31.38
2022-08-03T16:42:28.672Z,31.28
2022-08-03T16:44:57.616Z,31.18
2022-08-03T16:47:26.699Z,31.15
2022-08-03T16:49:56.783Z,31.08
2022-08-03T16:52:25.956Z,30.99
2022-08-03T16:54:54.880Z,30.92
2022-08-03T16:57:56.427Z,30.90
2022-08-03T17:00:33.288Z,30.52
2022-08-03T17:03:12.486Z,30.51
2022-08-03T17:05:49.498Z,30.50
2022-08-03T17:08:26.857Z,30.46
2022-08-03T17:10:56.691Z,30.32
2022-08-03T17:13:39.417Z,30.30
2022-08-03T17:16:12.154Z,30.27
2022-08-03T17:18:52.435Z,30.26
2022-08-03T17:21:29.318Z,30.17
2022-08-03T17:24:04.784Z,30.05
2022-08-03T17:26:44.816Z,29.93
2022-08-03T17:29:16.703Z,29.83
2022-08-03T17:31:49.763Z,29.81
2022-08-03T17:34:19.328Z,29.81
2022-08-03T17:37:05.765Z,29.76
2022-08-03T17:39:58.100Z,29.71
2022-08-03T17:42:30.343Z,29.66
2022-08-03T17:45:02.447Z,29.64
2022-08-03T17:47:42.529Z,29.53
2022-08-03T17:50:23.930Z,29.39
2022-08-03T17:53:07.873Z,29.32
2022-08-03T17:55:58.919Z,29.25
2022-08-03T17:58:52.407Z,29.20
2022-08-03T18:02:02.788Z,29.19
2022-08-03T18:04:40.593Z,29.06
2022-08-03T18:07:12.887Z,28.96
2022-08-03T18:10:04.808Z,28.87
2022-08-03T18:12:52.029Z,28.64
2022-08-03T18:15:27.685Z,28.55
2022-08-03T18:18:03.411Z,28.47
2022-08-03T18:20:42.647Z,28.46
2022-08-03T18:23:25.106Z,28.35
2022-08-03T18:26:06.760Z,28.30
2022-08-03T18:28:38.415Z,28.19
2022-08-03T18:31:07.791Z,28.16
2022-08-03T18:34:17.380Z,28.02
2022-08-03T18:36:31.933Z,27.86
2022-08-03T18:39:03.879Z,27.70
2022-08-03T18:41:34.605Z,27.58
2022-08-03T18:44:08.185Z,27.43
2022-08-03T18:46:54.910Z,27.29
2022-08-03T18:49:36.087Z,27.16
2022-08-03T18:52:15.824Z,27.00
2022-08-03T18:55:01.091Z,26.86
2022-08-03T18:57:40.356Z,26.70
2022-08-03T19:00:14.103Z,26.57
2022-08-03T19:02:49.751Z,26.39
2022-08-03T19:05:21.619Z,26.26
2022-08-03T19:07:59.915Z,26.06
2022-08-03T19:10:34.147Z,25.89
2022-08-03T19:13:11.309Z,25.76
2022-08-03T19:15:51.255Z,25.60
2022-08-03T19:18:22.292Z,25.42
2022-08-03T19:20:54.652Z,25.28
2022-08-03T19:26:29.916Z,24.96
2022-08-03T19:29:03.527Z,24.85
2022-08-03T19:31:34.910Z,24.70
2022-08-03T19:34:04.220Z,24.55
2022-08-03T19:36:40.374Z,24.38
2022-08-03T19:39:10.832Z,24.23
2022-08-03T19:41:42.348Z,24.21
2022-08-03T19:44:20.115Z,24.06
2022-08-03T19:46:55.137Z,23.94
2022-08-03T19:50:04.698Z,23.79
2022-08-03T19:52:24.452Z,23.68
2022-08-03T19:55:04.323Z,23.57
2022-08-03T19:57:34.790Z,23.47
2022-08-03T20:00:06.256Z,23.39
2022-08-03T20:02:35.741Z,23.30
2022-08-03T20:05:04.834Z,23.21
2022-08-03T20:07:48.182Z,23.11
2022-08-03T20:10:19.906Z,23.00
2022-08-03T20:12:50.021Z,22.89
2022-08-03T20:15:31.205Z,22.80
2022-08-03T20:18:01.090Z,22.70
2022-08-03T20:20:31.601Z,22.64
2022-08-03T20:25:59.136Z,22.49
2022-08-03T20:28:50.519Z,22.38
2022-08-03T20:31:32.093Z,22.30
2022-08-03T20:34:05.250Z,22.28
2022-08-03T20:36:34.187Z,22.20
2022-08-03T20:39:07.810Z,22.15
2022-08-03T20:41:39.031Z,22.05
2022-08-03T20:44:07.999Z,21.97
2022-08-03T20:46:53.124Z,21.92
2022-08-03T20:49:27.342Z,21.90
2022-08-03T20:51:56.163Z,21.80
2022-08-03T20:54:30.826Z,21.73
2022-08-03T20:57:03.788Z,21.66
2022-08-03T20:59:50.109Z,21.59
2022-08-03T21:02:29.563Z,21.52
2022-08-03T21:05:03.255Z,21.46
2022-08-03T21:08:05.438Z,21.42
2022-08-03T21:10:32.298Z,21.38
2022-08-03T21:13:02.097Z,25.14
2022-08-03T21:13:03.879Z,22.55
2022-08-03T21:16:11.742Z,21.19
2022-08-03T21:18:46.336Z,21.10
2022-08-03T21:21:17.023Z,20.99
2022-08-03T21:23:49.546Z,20.90
2022-08-03T21:26:20.000Z,20.83
2022-08-03T21:28:51.474Z,20.79
2022-08-03T21:31:25.226Z,20.79
2022-08-03T21:33:56.729Z,20.75
2022-08-03T21:36:27.648Z,20.67
2022-08-03T21:38:57.453Z,20.68
2022-08-03T21:41:27.398Z,20.68
2022-08-03T21:43:58.008Z,20.64
2022-08-03T21:46:28.259Z,20.59
2022-08-03T21:50:05.758Z,20.61
2022-08-03T21:51:53.764Z,20.52
2022-08-03T21:54:24.996Z,20.44
2022-08-03T21:56:55.864Z,20.34
2022-08-03T21:59:26.735Z,20.30
2022-08-03T22:01:58.611Z,20.27
2022-08-03T22:04:42.700Z,20.23
2022-08-03T22:07:18.325Z,20.20
2022-08-03T22:09:50.949Z,20.17
2022-08-03T22:12:23.676Z,20.13
2022-08-03T22:15:00.534Z,20.06
2022-08-03T22:17:56.334Z,19.98
2022-08-03T22:20:21.640Z,19.92
2022-08-03T22:22:56.463Z,19.84
2022-08-03T22:25:30.486Z,19.76
2022-08-03T22:28:01.620Z,19.67
2022-08-03T22:30:34.203Z,19.59
2022-08-03T22:33:05.169Z,19.58
2022-08-03T22:35:46.436Z,19.55
2022-08-03T22:38:17.552Z,19.52
2022-08-03T22:40:48.052Z,19.55
2022-08-03T22:43:17.275Z,19.52
2022-08-03T22:46:09.023Z,19.50
2022-08-03T22:48:41.410Z,19.47
2022-08-03T22:51:11.348Z,19.44
2022-08-03T22:53:41.542Z,19.35
2022-08-03T22:56:10.908Z,19.28
2022-08-03T22:58:39.522Z,19.25
2022-08-03T23:01:11.480Z,19.19
2022-08-03T23:03:58.703Z,19.18
2022-08-03T23:06:35.545Z,19.14
2022-08-03T23:09:07.967Z,19.03
2022-08-03T23:11:42.815Z,18.96
2022-08-03T23:14:17.164Z,18.87
2022-08-03T23:16:48.681Z,18.84
2022-08-03T23:19:24.978Z,18.82
2022-08-03T23:22:03.599Z,18.83
2022-08-03T23:24:36.040Z,18.84
2022-08-03T23:27:05.543Z,18.80
2022-08-03T23:29:36.023Z,18.73
2022-08-03T23:32:07.196Z,18.69
2022-08-03T23:34:56.970Z,18.61
2022-08-03T23:37:26.850Z,18.57
2022-08-03T23:39:58.129Z,18.53
2022-08-03T23:42:27.283Z,18.52
2022-08-03T23:45:05.841Z,18.59
2022-08-03T23:47:46.667Z,18.62
2022-08-03T23:50:16.035Z,18.58
2022-08-03T23:52:56.180Z,18.53
2022-08-03T23:55:41.419Z,18.45
2022-08-03T23:58:20.309Z,18.41
